createdAt,value
2018-10-06T00:01:29.696Z,99899.10
2018-10-06T00:03:56.654Z,99906.95
2018-10-06T00:06:23.522Z,99902.98
2018-10-06T00:08:50.528Z,99894.09
2018-10-06T00:11:17.554Z,99888.34
2018-10-06T00:13:44.492Z,99885.23
2018-10-06T00:16:11.644Z,99891.45
2018-10-06T00:18:38.502Z,99899.88
2018-10-06T00:21:05.392Z,99901.20
2018-10-06T00:23:32.655Z,99898.56
2018-10-06T00:25:59.561Z,99902.03
2018-10-06T00:28:26.534Z,99898.56
2018-10-06T00:30:53.608Z,99897.69
2018-10-06T00:33:20.500Z,99892.94
2018-10-06T00:35:47.394Z,99888.68
2018-10-06T00:38:14.459Z,99887.53
2018-10-06T00:40:42.131Z,99887.98
2018-10-06T00:43:09.081Z,99880.67
2018-10-06T00:45:36.095Z,99882.08
2018-10-06T00:48:03.026Z,99874.80
2018-10-06T00:50:29.944Z,99879.23
2018-10-06T00:52:56.941Z,99882.50
2018-10-06T00:55:23.862Z,99886.96
2018-10-06T00:57:50.749Z,99889.37
2018-10-06T01:00:18.095Z,99886.89
2018-10-06T01:02:44.930Z,99889.78
2018-10-06T01:05:11.815Z,99897.34
2018-10-06T01:07:38.753Z,99885.61
2018-10-06T01:10:05.803Z,99887.47
2018-10-06T01:12:32.748Z,99875.44
2018-10-06T01:14:59.885Z,99869.91
2018-10-06T01:17:26.784Z,99868.98
2018-10-06T01:19:53.705Z,99860.81
2018-10-06T01:22:20.946Z,99858.73
2018-10-06T01:24:47.826Z,99859.28
2018-10-06T01:27:14.712Z,99859.81
2018-10-06T01:29:41.731Z,99857.25
2018-10-06T01:32:08.636Z,99868.48
2018-10-06T01:34:35.548Z,99871.67
2018-10-06T01:37:02.589Z,99862.95
2018-10-06T01:39:29.919Z,99862.58
2018-10-06T01:41:56.858Z,99855.23
2018-10-06T01:44:23.886Z,99841.80
2018-10-06T01:46:50.981Z,99834.03
2018-10-06T01:49:17.869Z,99838.53
2018-10-06T01:51:45.006Z,99840.80
2018-10-06T01:54:11.969Z,99828.91
2018-10-06T01:56:38.919Z,99839.56
2018-10-06T01:59:06.026Z,99851.13
2018-10-06T02:01:33.146Z,99851.63
2018-10-06T02:04:00.024Z,99845.09
2018-10-06T02:06:27.058Z,99846.87
2018-10-06T02:08:53.940Z,99850.91
2018-10-06T02:11:20.847Z,99854.09
2018-10-06T02:13:47.843Z,99846.41
2018-10-06T02:16:14.724Z,99849.13
2018-10-06T02:18:41.694Z,99844.70
2018-10-06T02:21:08.823Z,99830.09
2018-10-06T02:23:35.795Z,99830.30
2018-10-06T02:26:02.726Z,99826.97
2018-10-06T02:28:29.790Z,99821.59
2018-10-06T02:30:56.702Z,99818.00
2018-10-06T02:33:23.633Z,99809.16
2018-10-06T02:35:50.705Z,99807.35
2018-10-06T02:38:17.545Z,99799.05
2018-10-06T02:40:44.484Z,99793.84
2018-10-06T02:43:11.469Z,99798.75
2018-10-06T02:45:38.339Z,99797.44
2018-10-06T02:48:05.292Z,99794.22
2018-10-06T02:50:32.265Z,99787.15
2018-10-06T02:52:59.200Z,99790.74
2018-10-06T02:55:26.709Z,99794.70
2018-10-06T02:57:54.423Z,99788.09
2018-10-06T03:00:21.938Z,99773.64
2018-10-06T03:02:49.540Z,99776.66
2018-10-06T03:05:16.672Z,99770.51
2018-10-06T03:07:44.203Z,99759.19
2018-10-06T03:10:11.064Z,99755.22
2018-10-06T03:12:38.210Z,99753.49
2018-10-06T03:15:05.122Z,99757.86
2018-10-06T03:17:32.138Z,99743.87
2018-10-06T03:19:59.272Z,99750.47
2018-10-06T03:22:26.207Z,99754.81
2018-10-06T03:24:53.079Z,99758.41
2018-10-06T03:27:20.191Z,99755.47
2018-10-06T03:29:47.066Z,99759.89
2018-10-06T03:32:13.919Z,99762.53
2018-10-06T03:34:41.022Z,99765.26
2018-10-06T03:37:07.917Z,99760.59
2018-10-06T03:39:34.780Z,99769.55
2018-10-06T03:42:02.539Z,99764.34
2018-10-06T03:44:29.440Z,99759.14
2018-10-06T03:46:56.335Z,99761.33
2018-10-06T03:49:23.402Z,99760.01
2018-10-06T03:51:50.285Z,99759.14
2018-10-06T03:54:17.182Z,99752.54
2018-10-06T03:56:44.290Z,99748.58
2018-10-06T03:59:11.528Z,99740.64
2018-10-06T04:01:38.441Z,99738.87
2018-10-06T04:04:05.801Z,99751.14
2018-10-06T04:06:32.755Z,99746.80
2018-10-06T04:08:59.794Z,99737.92
2018-10-06T04:11:27.007Z,99728.30
2018-10-06T04:13:53.949Z,99738.87
2018-10-06T04:16:20.816Z,99734.05
2018-10-06T04:18:47.837Z,99706.88
2018-10-06T04:21:14.802Z,99735.91
2018-10-06T04:23:41.682Z,99739.12
2018-10-06T04:26:08.908Z,99737.47
2018-10-06T04:28:35.877Z,99747.09
2018-10-06T04:31:02.792Z,99741.81
2018-10-06T04:33:29.806Z,99732.52
2018-10-06T04:35:56.674Z,99732.56
2018-10-06T04:38:23.568Z,99738.80
2018-10-06T04:40:50.798Z,99740.27
2018-10-06T04:43:17.624Z,99736.47
2018-10-06T04:45:44.508Z,99735.61
2018-10-06T04:48:11.918Z,99739.12
2018-10-06T04:50:38.844Z,99736.19
2018-10-06T04:53:05.768Z,99721.73
2018-10-06T04:55:33.198Z,99720.09
2018-10-06T04:58:00.127Z,99728.88
2018-10-06T05:00:27.002Z,99732.84
2018-10-06T05:02:54.026Z,99713.56
2018-10-06T05:05:21.145Z,99711.00
2018-10-06T05:07:48.056Z,99713.64
2018-10-06T05:10:15.092Z,99717.15
2018-10-06T05:12:42.022Z,99713.11
2018-10-06T05:15:08.910Z,99711.33
2018-10-06T05:17:36.086Z,99709.92
2018-10-06T05:20:03.655Z,99704.16
2018-10-06T05:22:31.124Z,99716.83
2018-10-06T05:24:58.735Z,99697.47
2018-10-06T05:27:26.277Z,99696.06
2018-10-06T05:29:53.798Z,99690.70
2018-10-06T05:32:21.539Z,99698.09
2018-10-06T05:34:49.059Z,99662.72
2018-10-06T05:37:16.629Z,99695.73
2018-10-06T05:39:43.769Z,99698.70
2018-10-06T05:42:10.629Z,99692.18
2018-10-06T05:44:38.146Z,99694.25
2018-10-06T05:47:05.865Z,99686.19
2018-10-06T05:49:33.379Z,99684.00
2018-10-06T05:52:00.953Z,99662.05
2018-10-06T05:54:28.576Z,99680.66
2018-10-06T05:56:56.110Z,99679.99
2018-10-06T05:59:23.637Z,99667.47
2018-10-06T06:01:50.791Z,99675.61
2018-10-06T06:04:17.693Z,99677.70
2018-10-06T06:06:44.874Z,99685.92
2018-10-06T06:09:11.807Z,99695.41
2018-10-06T06:11:38.674Z,99701.69
2018-10-06T06:14:05.599Z,99710.77
2018-10-06T06:16:32.754Z,99709.68
2018-10-06T06:18:59.684Z,99716.70
2018-10-06T06:21:26.584Z,99723.14
2018-10-06T06:23:53.948Z,99716.81
2018-10-06T06:26:20.857Z,99710.49
2018-10-06T06:28:47.790Z,99712.97
2018-10-06T06:31:14.947Z,99722.13
2018-10-06T06:33:41.839Z,99731.63
2018-10-06T06:36:08.730Z,99727.86
2018-10-06T06:38:35.745Z,99711.45
2018-10-06T06:41:02.710Z,99718.75
2018-10-06T06:43:29.640Z,99709.78
2018-10-06T06:45:56.685Z,99709.97
2018-10-06T06:48:23.550Z,99708.39
2018-10-06T06:50:50.437Z,99713.05
2018-10-06T06:53:17.590Z,99717.70
2018-10-06T06:55:44.524Z,99712.61
2018-10-06T06:58:11.452Z,99714.53
2018-10-06T07:00:38.598Z,99719.84
2018-10-06T07:03:05.490Z,99719.39
2018-10-06T07:05:32.360Z,99726.52
2018-10-06T07:07:59.626Z,99745.47
2018-10-06T07:10:26.430Z,99733.56
2018-10-06T07:12:53.533Z,99731.79
2018-10-06T07:15:20.571Z,99730.59
2018-10-06T07:17:47.485Z,99738.45
2018-10-06T07:20:14.316Z,99744.99
2018-10-06T07:22:41.469Z,99746.26
2018-10-06T07:25:08.624Z,99745.24
2018-10-06T07:27:35.502Z,99758.30
2018-10-06T07:30:02.606Z,99751.98
2018-10-06T07:32:29.545Z,99753.70
2018-10-06T07:34:56.787Z,99745.27
2018-10-06T07:37:23.977Z,99746.39
2018-10-06T07:39:50.902Z,99748.87
2018-10-06T07:42:18.455Z,99757.48
2018-10-06T07:44:46.392Z,99753.02
2018-10-06T07:47:13.852Z,99757.73
2018-10-06T07:49:41.388Z,99756.39
2018-10-06T07:52:09.171Z,99769.07
2018-10-06T07:54:36.630Z,99771.17
2018-10-06T07:57:04.240Z,99767.09
2018-10-06T07:59:31.988Z,99772.86
2018-10-06T08:01:59.503Z,99781.16
2018-10-06T08:04:26.399Z,99785.14
2018-10-06T08:06:53.449Z,99790.42
2018-10-06T08:09:20.467Z,99790.41
2018-10-06T08:11:47.334Z,99762.07
2018-10-06T08:14:14.395Z,99797.47
2018-10-06T08:16:41.248Z,99797.53
2018-10-06T08:19:08.134Z,99799.67
2018-10-06T08:21:35.085Z,99802.02
2018-10-06T08:24:02.605Z,99805.60
2018-10-06T08:26:29.587Z,99815.09
2018-10-06T08:28:56.684Z,99813.45
2018-10-06T08:31:23.563Z,99821.02
2018-10-06T08:33:50.441Z,99824.59
2018-10-06T08:36:17.448Z,99824.75
2018-10-06T08:38:44.320Z,99827.59
2018-10-06T08:41:11.148Z,99844.47
2018-10-06T08:43:38.224Z,99842.82
2018-10-06T08:46:05.235Z,99838.02
2018-10-06T08:48:32.156Z,99837.45
2018-10-06T08:50:59.229Z,99856.15
2018-10-06T08:53:26.140Z,99857.53
2018-10-06T08:55:53.124Z,99864.33
2018-10-06T08:58:20.321Z,99866.20
2018-10-06T09:00:47.175Z,99868.08
2018-10-06T09:03:14.135Z,99867.55
2018-10-06T09:05:41.301Z,99870.04
2018-10-06T09:08:08.187Z,99877.99
2018-10-06T09:10:35.404Z,99879.76
2018-10-06T09:13:02.497Z,99877.89
2018-10-06T09:15:29.364Z,99886.70
2018-10-06T09:17:56.240Z,99884.08
2018-10-06T09:20:23.504Z,99879.89
2018-10-06T09:22:50.462Z,99875.85
2018-10-06T09:25:17.335Z,99874.22
2018-10-06T09:27:44.408Z,99885.77
2018-10-06T09:30:11.259Z,99881.61
2018-10-06T09:32:38.125Z,99887.97
2018-10-06T09:35:05.382Z,99892.52
2018-10-06T09:37:32.244Z,99892.00
2018-10-06T09:39:59.167Z,99897.31
2018-10-06T09:42:26.380Z,99894.23
2018-10-06T09:44:53.259Z,99904.12
2018-10-06T09:47:20.142Z,99910.76
2018-10-06T09:49:47.341Z,99914.57
2018-10-06T09:52:14.190Z,99909.63
2018-10-06T09:54:41.090Z,99903.80
2018-10-06T09:57:08.215Z,99910.27
2018-10-06T09:59:35.887Z,99920.50
2018-10-06T10:02:08.685Z,99930.58
2018-10-06T10:04:36.926Z,99933.15
2018-10-06T10:07:04.394Z,99918.20
2018-10-06T10:09:31.867Z,99918.80
2018-10-06T10:11:59.719Z,99939.95
2018-10-06T10:14:27.145Z,99940.80
2018-10-06T10:16:54.728Z,99946.14
2018-10-06T10:19:22.527Z,99947.22
2018-10-06T10:21:50.115Z,99953.16
2018-10-06T10:24:17.552Z,99945.53
2018-10-06T10:26:45.085Z,99951.11
2018-10-06T10:29:12.524Z,99945.28
2018-10-06T10:31:39.468Z,99960.36
2018-10-06T10:34:06.601Z,99975.70
2018-10-06T10:36:33.432Z,99976.92
2018-10-06T10:39:00.934Z,99975.22
2018-10-06T10:41:28.050Z,99983.84
2018-10-06T10:43:54.896Z,99962.31
2018-10-06T10:46:21.768Z,99995.98
2018-10-06T10:48:48.903Z,99978.48
2018-10-06T10:51:15.738Z,100006.30
2018-10-06T10:53:42.633Z,100003.28
2018-10-06T10:56:09.593Z,100010.80
2018-10-06T10:58:36.468Z,100002.19
2018-10-06T11:01:03.374Z,100010.55
2018-10-06T11:03:30.510Z,100011.78
2018-10-06T11:05:57.497Z,100011.31
2018-10-06T11:08:24.392Z,100005.00
2018-10-06T11:10:51.392Z,100009.98
2018-10-06T11:13:18.462Z,100006.44
2018-10-06T11:15:45.316Z,100015.41
2018-10-06T11:18:12.353Z,100013.92
2018-10-06T11:20:39.283Z,100018.02
2018-10-06T11:23:06.761Z,100026.14
2018-10-06T11:25:34.549Z,100014.56
2018-10-06T11:28:02.060Z,100016.13
2018-10-06T11:30:28.943Z,100016.73
2018-10-06T11:32:56.079Z,100025.94
2018-10-06T11:35:23.588Z,100024.42
2018-10-06T11:37:51.302Z,100031.80
2018-10-06T11:40:18.889Z,100043.09
2018-10-06T11:42:45.728Z,100041.31
2018-10-06T11:45:12.598Z,100040.52
2018-10-06T11:47:39.644Z,100052.50
2018-10-06T11:50:06.740Z,100055.45
2018-10-06T11:52:33.694Z,100055.23
2018-10-06T11:55:00.626Z,100064.50
2018-10-06T11:57:27.508Z,100067.83
2018-10-06T11:59:54.404Z,100064.06
2018-10-06T12:02:21.356Z,100061.82
2018-10-06T12:04:48.214Z,100069.98
2018-10-06T12:07:15.115Z,100062.62
2018-10-06T12:09:42.104Z,100062.48
2018-10-06T12:12:08.994Z,100070.49
2018-10-06T12:14:35.953Z,100074.37
2018-10-06T12:17:02.908Z,100085.40
2018-10-06T12:19:29.764Z,100085.38
2018-10-06T12:21:56.756Z,100087.16
2018-10-06T12:24:23.916Z,100099.78
2018-10-06T12:26:50.843Z,100101.25
2018-10-06T12:29:17.773Z,100106.54
2018-10-06T12:31:44.910Z,100108.28
2018-10-06T12:34:11.766Z,100114.77
2018-10-06T12:36:38.664Z,100128.08
2018-10-06T12:39:05.929Z,100124.18
2018-10-06T12:41:32.813Z,100122.14
2018-10-06T12:43:59.680Z,100127.51
2018-10-06T12:46:26.744Z,100131.02
2018-10-06T12:48:53.587Z,100134.48
2018-10-06T12:51:20.429Z,100137.86
2018-10-06T12:53:47.447Z,100138.72
2018-10-06T12:56:14.301Z,100143.22
2018-10-06T12:58:41.183Z,100150.75
2018-10-06T13:01:08.145Z,100154.69
2018-10-06T13:03:35.052Z,100155.21
2018-10-06T13:06:01.897Z,100154.13
2018-10-06T13:08:28.930Z,100148.89
2018-10-06T13:10:55.833Z,100152.23
2018-10-06T13:13:22.684Z,100158.20
2018-10-06T13:15:49.781Z,100159.80
2018-10-06T13:18:16.688Z,100159.67
2018-10-06T13:20:43.569Z,100157.59
2018-10-06T13:23:10.597Z,100171.96
2018-10-06T13:25:37.426Z,100165.34
2018-10-06T13:28:04.246Z,100175.95
2018-10-06T13:30:31.165Z,100181.58
2018-10-06T13:32:58.102Z,100186.11
2018-10-06T13:35:25.092Z,100191.26
2018-10-06T13:37:52.175Z,100190.08
2018-10-06T13:40:19.102Z,100162.97
2018-10-06T13:42:45.977Z,100190.23
2018-10-06T13:45:12.907Z,100193.30
2018-10-06T13:47:39.784Z,100202.56
2018-10-06T13:50:06.707Z,100204.40
2018-10-06T13:52:34.315Z,100201.49
2018-10-06T13:55:01.127Z,100209.41
2018-10-06T13:57:28.073Z,100210.64
2018-10-06T13:59:55.323Z,100213.54
2018-10-06T14:02:22.176Z,100225.11
2018-10-06T14:04:49.049Z,100229.63
2018-10-06T14:07:16.146Z,100231.23
2018-10-06T14:09:43.031Z,100230.98
2018-10-06T14:12:09.921Z,100234.16
2018-10-06T14:14:36.864Z,100239.53
2018-10-06T14:17:04.669Z,100238.52
2018-10-06T14:19:31.573Z,100248.14
2018-10-06T14:21:58.493Z,100245.34
2018-10-06T14:24:25.429Z,100246.19
2018-10-06T14:26:52.302Z,100254.46
2018-10-06T14:29:19.267Z,100256.79
2018-10-06T14:31:46.131Z,100264.20
2018-10-06T14:34:13.017Z,100265.42
2018-10-06T14:36:40.098Z,100265.98
2018-10-06T14:39:07.607Z,100264.16
2018-10-06T14:41:35.164Z,100263.19
2018-10-06T14:44:02.224Z,100272.40
2018-10-06T14:46:29.119Z,100276.88
2018-10-06T14:48:55.967Z,100276.99
2018-10-06T14:51:22.988Z,100276.71
2018-10-06T14:53:49.894Z,100278.40
2018-10-06T14:56:16.731Z,100278.71
2018-10-06T14:58:43.811Z,100287.55
2018-10-06T15:01:10.685Z,100287.78
2018-10-06T15:03:37.539Z,100291.39
2018-10-06T15:06:04.608Z,100299.87
2018-10-06T15:08:32.112Z,100303.28
2018-10-06T15:10:59.530Z,100302.52
2018-10-06T15:13:27.180Z,100310.66
2018-10-06T15:15:54.704Z,100309.19
2018-10-06T15:18:22.209Z,100313.90
2018-10-06T15:20:49.825Z,100321.06
2018-10-06T15:23:17.308Z,100322.03
2018-10-06T15:25:44.881Z,100326.85
2018-10-06T15:28:12.741Z,100335.09
2018-10-06T15:30:40.194Z,100335.31
2018-10-06T15:33:07.718Z,100340.41
2018-10-06T15:35:35.417Z,100340.63
2018-10-06T15:38:02.921Z,100346.20
2018-10-06T15:40:30.386Z,100354.22
2018-10-06T15:42:58.148Z,100361.23
2018-10-06T15:45:25.612Z,100368.82
2018-10-06T15:47:53.075Z,100373.38
2018-10-06T15:50:20.844Z,100368.28
2018-10-06T15:52:48.340Z,100379.15
2018-10-06T15:55:15.800Z,100384.66
2018-10-06T15:57:43.342Z,100383.25
2018-10-06T16:00:10.923Z,100394.36
2018-10-06T16:02:38.482Z,100403.16
2018-10-06T16:05:06.225Z,100402.02
2018-10-06T16:07:33.701Z,100405.98
2018-10-06T16:10:01.223Z,100413.07
2018-10-06T16:12:28.871Z,100411.66
2018-10-06T16:14:56.390Z,100409.36
2018-10-06T16:17:23.851Z,100415.11
2018-10-06T16:19:51.815Z,100425.73
2018-10-06T16:22:19.274Z,100426.14
2018-10-06T16:24:46.777Z,100428.95
2018-10-06T16:27:14.612Z,100433.98
2018-10-06T16:29:42.157Z,100437.52
2018-10-06T16:32:09.689Z,100442.02
2018-10-06T16:34:36.687Z,100450.92
2018-10-06T16:37:03.603Z,100455.69
2018-10-06T16:39:30.499Z,100456.34
2018-10-06T16:41:57.654Z,100469.11
2018-10-06T16:44:24.656Z,100464.77
2018-10-06T16:46:51.582Z,100467.22
2018-10-06T16:49:18.649Z,100474.08
2018-10-06T16:51:45.573Z,100468.94
2018-10-06T16:54:12.404Z,100475.53
2018-10-06T16:56:39.613Z,100481.52
2018-10-06T16:59:06.534Z,100481.24
2018-10-06T17:01:33.424Z,100485.53
2018-10-06T17:04:00.417Z,100491.42
2018-10-06T17:06:27.431Z,100490.74
2018-10-06T17:08:54.257Z,100508.75
2018-10-06T17:11:21.569Z,100510.83
2018-10-06T17:13:48.416Z,100515.97
2018-10-06T17:16:15.244Z,100524.24
2018-10-06T17:18:42.467Z,100523.34
2018-10-06T17:21:09.376Z,100537.61
2018-10-06T17:24:02.424Z,100546.62
2018-10-06T17:26:29.440Z,100541.25
2018-10-06T17:28:56.406Z,100544.05
2018-10-06T17:31:23.410Z,100545.83
2018-10-06T17:33:50.243Z,100549.30
2018-10-06T17:36:17.197Z,100551.58
2018-10-06T17:38:44.325Z,100552.94
2018-10-06T17:41:11.227Z,100550.34
2018-10-06T17:43:38.247Z,100558.75
2018-10-06T17:46:05.381Z,100566.30
2018-10-06T17:48:32.302Z,100565.48
2018-10-06T17:50:59.475Z,100569.48
2018-10-06T17:53:26.511Z,100573.06
2018-10-06T17:55:53.437Z,100578.88
2018-10-06T17:58:20.417Z,100579.34
2018-10-06T18:00:47.437Z,100575.86
2018-10-06T18:03:14.344Z,100582.98
2018-10-06T18:05:41.316Z,100586.92
2018-10-06T18:08:08.415Z,100590.91
2018-10-06T18:10:35.311Z,100602.34
2018-10-06T18:13:02.353Z,100602.73
2018-10-06T18:15:29.336Z,100611.48
2018-10-06T18:17:56.291Z,100611.00
2018-10-06T18:20:23.534Z,100614.09
2018-10-06T18:22:51.099Z,100613.53
2018-10-06T18:25:18.368Z,100617.06
2018-10-06T18:27:45.559Z,100620.47
2018-10-06T18:30:12.688Z,100616.87
2018-10-06T18:32:39.583Z,100618.09
2018-10-06T18:35:06.454Z,100630.25
2018-10-06T18:37:33.505Z,100636.72
2018-10-06T18:40:00.358Z,100644.03
2018-10-06T18:42:27.245Z,100643.95
2018-10-06T18:44:54.328Z,100648.14
2018-10-06T18:47:21.226Z,100641.88
2018-10-06T18:49:48.106Z,100644.33
2018-10-06T18:52:15.093Z,100646.43
2018-10-06T18:54:41.944Z,100655.51
2018-10-06T18:57:08.929Z,100660.22
2018-10-06T18:59:35.948Z,100665.73
2018-10-06T19:02:02.806Z,100663.44
2018-10-06T19:04:29.707Z,100669.89
2018-10-06T19:06:56.607Z,100677.23
2018-10-06T19:09:23.737Z,100682.88
2018-10-06T19:11:50.629Z,100682.28
2018-10-06T19:14:48.094Z,100694.95
2018-10-06T19:17:14.999Z,100692.64
2018-10-06T19:19:41.945Z,100692.48
2018-10-06T19:22:08.822Z,100693.20
2018-10-06T19:24:35.882Z,100701.34
2018-10-06T19:27:02.729Z,100704.19
2018-10-06T19:29:29.822Z,100708.42
2018-10-06T19:31:56.669Z,100720.07
2018-10-06T19:34:23.604Z,100719.39
2018-10-06T19:36:50.768Z,100719.19
2018-10-06T19:39:17.679Z,100721.55
2018-10-06T19:41:44.617Z,100725.70
2018-10-06T19:44:12.348Z,100726.77
2018-10-06T19:46:39.852Z,100733.11
2018-10-06T19:49:07.348Z,100736.78
2018-10-06T19:51:35.169Z,100742.20
2018-10-06T19:54:02.705Z,100741.87
2018-10-06T19:56:30.207Z,100751.19
2018-10-06T19:58:57.882Z,100761.02
2018-10-06T20:01:25.389Z,100759.88
2018-10-06T20:03:52.998Z,100757.35
2018-10-06T20:06:20.697Z,100766.67
2018-10-06T20:08:48.212Z,100765.02
2018-10-06T20:11:15.692Z,100769.55
2018-10-06T20:13:43.310Z,100766.58
2018-10-06T20:16:10.833Z,100768.05
2018-10-06T20:18:38.362Z,100778.25
2018-10-06T20:21:06.120Z,100779.80
2018-10-06T20:23:33.629Z,100779.53
2018-10-06T20:26:01.553Z,100784.06
2018-10-06T20:28:29.402Z,100789.91
2018-10-06T20:30:56.903Z,100789.58
2018-10-06T20:33:24.572Z,100789.69
2018-10-06T20:35:52.240Z,100792.06
2018-10-06T20:38:19.700Z,100802.74
2018-10-06T20:40:47.192Z,100802.03
2018-10-06T20:43:14.859Z,100802.65
2018-10-06T20:45:41.796Z,100806.28
2018-10-06T20:48:09.294Z,100809.98
2018-10-06T20:50:36.859Z,100810.14
2018-10-06T20:53:04.656Z,100823.94
2018-10-06T20:55:32.187Z,100822.36
2018-10-06T20:57:59.076Z,100825.16
2018-10-06T21:00:26.121Z,100829.72
2018-10-06T21:02:52.978Z,100829.87
2018-10-06T21:05:20.482Z,100835.27
2018-10-06T21:07:47.541Z,100837.62
2018-10-06T21:10:14.531Z,100840.36
2018-10-06T21:12:41.390Z,100835.62
2018-10-06T21:15:08.545Z,100844.53
2018-10-06T21:17:36.146Z,100848.59
2018-10-06T21:20:03.710Z,100848.27
2018-10-06T21:22:31.271Z,100841.81
2018-10-06T21:24:58.782Z,100847.67
2018-10-06T21:27:26.364Z,100851.25
2018-10-06T21:29:53.950Z,100867.19
2018-10-06T21:32:21.519Z,100865.58
2018-10-06T21:34:49.063Z,100875.78
2018-10-06T21:37:16.727Z,100872.77
2018-10-06T21:39:44.230Z,100876.38
2018-10-06T21:42:11.764Z,100880.83
2018-10-06T21:44:39.601Z,100885.31
2018-10-06T21:47:07.179Z,100886.25
2018-10-06T21:49:34.721Z,100892.94
2018-10-06T21:52:02.579Z,100889.52
2018-10-06T21:54:30.062Z,100883.89
2018-10-06T21:56:57.675Z,100882.67
2018-10-06T21:59:25.297Z,100889.75
2018-10-06T22:01:52.802Z,100896.45
2018-10-06T22:04:20.352Z,100903.13
2018-10-06T22:06:47.912Z,100901.51
2018-10-06T22:09:15.468Z,100902.92
2018-10-06T22:11:42.957Z,100904.81
2018-10-06T22:14:10.534Z,100911.95
2018-10-06T22:16:37.984Z,100915.59
2018-10-06T22:19:05.526Z,100910.00
2018-10-06T22:21:33.163Z,100908.78
2018-10-06T22:24:00.665Z,100913.22
2018-10-06T22:26:28.150Z,100912.91
2018-10-06T22:28:55.965Z,100914.27
2018-10-06T22:31:23.518Z,100920.42
2018-10-06T22:33:51.035Z,100922.66
2018-10-06T22:36:18.745Z,100929.70
2018-10-06T22:38:46.264Z,100925.83
2018-10-06T22:41:13.733Z,100924.52
2018-10-06T22:43:41.348Z,100928.03
2018-10-06T22:46:08.892Z,100927.15
2018-10-06T22:48:36.401Z,100928.06
2018-10-06T22:51:04.028Z,100928.51
2018-10-06T22:53:31.694Z,100934.26
2018-10-06T22:55:59.192Z,100936.46
2018-10-06T22:58:27.053Z,100936.91
2018-10-06T23:00:54.526Z,100944.81
2018-10-06T23:03:22.101Z,100947.05
2018-10-06T23:05:49.722Z,100948.77
2018-10-06T23:08:17.322Z,100951.00
2018-10-06T23:10:44.973Z,100956.27
2018-10-06T23:13:12.715Z,100957.63
2018-10-06T23:15:40.235Z,100955.96
2018-10-06T23:18:07.739Z,100961.67
2018-10-06T23:20:35.509Z,100961.71
2018-10-06T23:23:03.033Z,100958.72
2018-10-06T23:25:30.497Z,100964.88
2018-10-06T23:27:58.197Z,100963.16
2018-10-06T23:30:25.888Z,100963.64
2018-10-06T23:32:53.536Z,100967.63
2018-10-06T23:35:21.192Z,100972.98
2018-10-06T23:37:48.728Z,100972.19
2018-10-06T23:40:16.182Z,100977.53
2018-10-06T23:42:43.831Z,100980.66
2018-10-06T23:45:11.364Z,100982.01
2018-10-06T23:47:38.821Z,100981.61
2018-10-06T23:50:06.621Z,100980.33
2018-10-06T23:52:34.094Z,100981.17
2018-10-06T23:55:01.565Z,100989.11
2018-10-06T23:57:29.312Z,100990.52
2018-10-06T23:59:56.880Z,100993.63
